Portada
METAR-TAF:

METAR-TAF

Aeroports :

Xi'an, Xina

latitud: 34-26N, longitud: 108-45E, altitud: 479 m

Observació

L'informe es va fer fa 1 hora i 5 minuts, a les 00:00 UTC
Vent 2 kt amb direcció variable
Temperatura 1°C
Humitat 93%
Pressió 1022 hPa
Visibilitat 10 km o més
sense núvols per sota de 1500 mi sense presència de cumulonimbus.

METAR: ZLXY 140000Z VRB01MPS CAVOK 01/00 Q1022 NOSIG

Hora: 09:05 (01:05 UTC)

Pronòstic

L'informe es va fer fa 6 hores i 0 minuts, a les 19:05 UTC
Pronòstic vàlid del 14 a les 00 UTC al 14 a les 24 UTC
Vent 6 kt del Oest/Sud-Oest
Visibilitat: 5000 m
calitja

TAF: ZLXY 131905Z 1400/1424 24003MPS 5000 HZ NSC TX17/1407Z TN01/1422Z

Observacions i pronòstics meteorològics de més de 4000 aeroports (METAR i TAF).

Les estacions disponibles són els punts grocs i vermells al mapa.

Posi el ratolí al punt desitjat per veure el nom de l'estació.

Feu clic per veure les observacions i els pronòstics meteorològics.

Per canviar el mapa: feu clic els botons verds amb una creu de color negre per apropar; al botó verd amb un guió per allunyar la imatge; o en les fletxes verdes per a mapes adjacents.


METAR-TAF: